sensor_id;sensor_type;location;lat;lon;timestamp;P1;durP1;ratioP1;P2;durP2;ratioP2
70850;SDS011;58475;49.662;9.636;2024-03-06T00:01:51;5.22;;;3.08;;
70850;SDS011;58475;49.662;9.636;2024-03-06T00:04:16;4.97;;;2.80;;
70850;SDS011;58475;49.662;9.636;2024-03-06T00:06:42;5.43;;;3.03;;
70850;SDS011;58475;49.662;9.636;2024-03-06T00:09:07;6.07;;;3.38;;
70850;SDS011;58475;49.662;9.636;2024-03-06T00:11:33;6.20;;;3.50;;
70850;SDS011;58475;49.662;9.636;2024-03-06T00:14:01;7.72;;;3.75;;
70850;SDS011;58475;49.662;9.636;2024-03-06T00:16:27;6.75;;;3.78;;
70850;SDS011;58475;49.662;9.636;2024-03-06T00:18:53;6.38;;;3.67;;
70850;SDS011;58475;49.662;9.636;2024-03-06T00:21:18;5.88;;;3.45;;
70850;SDS011;58475;49.662;9.636;2024-03-06T00:23:43;5.38;;;2.85;;
70850;SDS011;58475;49.662;9.636;2024-03-06T00:26:11;5.35;;;2.72;;
70850;SDS011;58475;49.662;9.636;2024-03-06T00:28:38;6.55;;;3.88;;
70850;SDS011;58475;49.662;9.636;2024-03-06T00:31:04;5.78;;;3.72;;
70850;SDS011;58475;49.662;9.636;2024-03-06T00:33:30;5.40;;;3.30;;
70850;SDS011;58475;49.662;9.636;2024-03-06T00:35:55;6.43;;;3.40;;
70850;SDS011;58475;49.662;9.636;2024-03-06T00:38:21;6.30;;;3.50;;
70850;SDS011;58475;49.662;9.636;2024-03-06T00:40:46;4.90;;;3.08;;
70850;SDS011;58475;49.662;9.636;2024-03-06T00:43:12;7.18;;;3.72;;
70850;SDS011;58475;49.662;9.636;2024-03-06T00:45:37;6.03;;;3.60;;
70850;SDS011;58475;49.662;9.636;2024-03-06T00:48:03;7.75;;;3.33;;
70850;SDS011;58475;49.662;9.636;2024-03-06T00:50:28;5.10;;;3.05;;
70850;SDS011;58475;49.662;9.636;2024-03-06T00:52:54;8.35;;;4.45;;
70850;SDS011;58475;49.662;9.636;2024-03-06T00:55:19;6.28;;;3.03;;
70850;SDS011;58475;49.662;9.636;2024-03-06T00:57:44;6.22;;;3.58;;
70850;SDS011;58475;49.662;9.636;2024-03-06T01:00:10;5.85;;;3.42;;
70850;SDS011;58475;49.662;9.636;2024-03-06T01:02:36;6.93;;;3.75;;
70850;SDS011;58475;49.662;9.636;2024-03-06T01:05:02;4.95;;;2.97;;
70850;SDS011;58475;49.662;9.636;2024-03-06T01:07:29;7.40;;;3.38;;
70850;SDS011;58475;49.662;9.636;2024-03-06T01:09:55;5.93;;;3.40;;
70850;SDS011;58475;49.662;9.636;2024-03-06T01:12:22;6.55;;;3.78;;
70850;SDS011;58475;49.662;9.636;2024-03-06T01:14:48;5.60;;;2.88;;
70850;SDS011;58475;49.662;9.636;2024-03-06T01:17:13;5.22;;;3.00;;
70850;SDS011;58475;49.662;9.636;2024-03-06T01:19:39;5.90;;;3.55;;
70850;SDS011;58475;49.662;9.636;2024-03-06T01:22:04;5.88;;;3.65;;
70850;SDS011;58475;49.662;9.636;2024-03-06T01:24:29;6.45;;;3.50;;
70850;SDS011;58475;49.662;9.636;2024-03-06T01:26:54;6.85;;;3.38;;
70850;SDS011;58475;49.662;9.636;2024-03-06T01:29:20;5.35;;;3.28;;
70850;SDS011;58475;49.662;9.636;2024-03-06T01:31:45;5.43;;;3.33;;
70850;SDS011;58475;49.662;9.636;2024-03-06T01:34:11;6.05;;;3.50;;
70850;SDS011;58475;49.662;9.636;2024-03-06T01:36:37;6.80;;;3.33;;
70850;SDS011;58475;49.662;9.636;2024-03-06T01:39:02;5.22;;;3.28;;
70850;SDS011;58475;49.662;9.636;2024-03-06T01:41:28;7.40;;;3.60;;
70850;SDS011;58475;49.662;9.636;2024-03-06T01:43:53;6.85;;;4.10;;
70850;SDS011;58475;49.662;9.636;2024-03-06T01:46:19;6.45;;;3.63;;
70850;SDS011;58475;49.662;9.636;2024-03-06T01:48:44;5.32;;;3.15;;
70850;SDS011;58475;49.662;9.636;2024-03-06T01:51:10;5.68;;;3.00;;
70850;SDS011;58475;49.662;9.636;2024-03-06T01:53:36;5.63;;;3.45;;
70850;SDS011;58475;49.662;9.636;2024-03-06T01:56:03;7.20;;;3.53;;
70850;SDS011;58475;49.662;9.636;2024-03-06T01:58:29;6.18;;;2.95;;
70850;SDS011;58475;49.662;9.636;2024-03-06T02:00:55;5.78;;;3.10;;
70850;SDS011;58475;49.662;9.636;2024-03-06T02:03:22;6.75;;;3.65;;
70850;SDS011;58475;49.662;9.636;2024-03-06T02:05:50;6.10;;;3.40;;
70850;SDS011;58475;49.662;9.636;2024-03-06T02:08:16;7.70;;;3.30;;
70850;SDS011;58475;49.662;9.636;2024-03-06T02:10:43;6.63;;;3.45;;
70850;SDS011;58475;49.662;9.636;2024-03-06T02:13:09;8.07;;;3.25;;
70850;SDS011;58475;49.662;9.636;2024-03-06T02:15:35;8.68;;;4.45;;
70850;SDS011;58475;49.662;9.636;2024-03-06T02:18:04;6.10;;;3.38;;
70850;SDS011;58475;49.662;9.636;2024-03-06T02:20:30;6.40;;;4.18;;
70850;SDS011;58475;49.662;9.636;2024-03-06T02:22:55;5.18;;;2.83;;
70850;SDS011;58475;49.662;9.636;2024-03-06T02:25:21;6.35;;;3.03;;
70850;SDS011;58475;49.662;9.636;2024-03-06T02:27:46;5.90;;;3.20;;
70850;SDS011;58475;49.662;9.636;2024-03-06T02:30:13;5.88;;;3.35;;
70850;SDS011;58475;49.662;9.636;2024-03-06T02:32:39;7.63;;;4.13;;
70850;SDS011;58475;49.662;9.636;2024-03-06T02:35:04;7.47;;;3.40;;
70850;SDS011;58475;49.662;9.636;2024-03-06T02:37:33;4.90;;;3.22;;
70850;SDS011;58475;49.662;9.636;2024-03-06T02:39:59;5.97;;;3.42;;
70850;SDS011;58475;49.662;9.636;2024-03-06T02:42:26;6.70;;;3.47;;
70850;SDS011;58475;49.662;9.636;2024-03-06T02:44:52;4.88;;;2.85;;
70850;SDS011;58475;49.662;9.636;2024-03-06T02:47:18;5.35;;;3.10;;
70850;SDS011;58475;49.662;9.636;2024-03-06T02:49:44;5.68;;;3.40;;
70850;SDS011;58475;49.662;9.636;2024-03-06T02:52:10;6.22;;;3.20;;
70850;SDS011;58475;49.662;9.636;2024-03-06T02:54:35;4.97;;;3.13;;
70850;SDS011;58475;49.662;9.636;2024-03-06T02:57:01;4.82;;;2.97;;
70850;SDS011;58475;49.662;9.636;2024-03-06T02:59:26;6.47;;;3.50;;
70850;SDS011;58475;49.662;9.636;2024-03-06T03:01:52;5.60;;;3.25;;
70850;SDS011;58475;49.662;9.636;2024-03-06T03:04:18;4.95;;;2.90;;
70850;SDS011;58475;49.662;9.636;2024-03-06T03:06:43;5.13;;;3.00;;
70850;SDS011;58475;49.662;9.636;2024-03-06T03:09:09;6.60;;;3.22;;
70850;SDS011;58475;49.662;9.636;2024-03-06T03:11:37;5.65;;;3.28;;
70850;SDS011;58475;49.662;9.636;2024-03-06T03:14:02;4.78;;;2.88;;
70850;SDS011;58475;49.662;9.636;2024-03-06T03:16:28;6.75;;;3.58;;
70850;SDS011;58475;49.662;9.636;2024-03-06T03:18:54;6.07;;;3.05;;
70850;SDS011;58475;49.662;9.636;2024-03-06T03:21:20;9.27;;;3.50;;
70850;SDS011;58475;49.662;9.636;2024-03-06T03:23:46;4.65;;;2.50;;
70850;SDS011;58475;49.662;9.636;2024-03-06T03:26:12;6.22;;;3.67;;
70850;SDS011;58475;49.662;9.636;2024-03-06T03:28:40;5.40;;;3.90;;
70850;SDS011;58475;49.662;9.636;2024-03-06T03:31:09;7.47;;;4.32;;
70850;SDS011;58475;49.662;9.636;2024-03-06T03:33:44;6.57;;;4.18;;
70850;SDS011;58475;49.662;9.636;2024-03-06T03:36:09;6.65;;;3.80;;
70850;SDS011;58475;49.662;9.636;2024-03-06T03:38:36;5.70;;;3.17;;
70850;SDS011;58475;49.662;9.636;2024-03-06T03:41:11;6.38;;;4.00;;
70850;SDS011;58475;49.662;9.636;2024-03-06T03:43:40;5.85;;;3.38;;
70850;SDS011;58475;49.662;9.636;2024-03-06T03:46:06;5.65;;;3.40;;
70850;SDS011;58475;49.662;9.636;2024-03-06T03:48:32;5.30;;;3.10;;
70850;SDS011;58475;49.662;9.636;2024-03-06T03:51:01;5.35;;;3.25;;
70850;SDS011;58475;49.662;9.636;2024-03-06T03:53:28;5.97;;;3.28;;
70850;SDS011;58475;49.662;9.636;2024-03-06T03:55:53;10.38;;;6.45;;
70850;SDS011;58475;49.662;9.636;2024-03-06T03:58:18;7.47;;;5.00;;
70850;SDS011;58475;49.662;9.636;2024-03-06T04:00:44;6.85;;;3.92;;
70850;SDS011;58475;49.662;9.636;2024-03-06T04:03:09;6.20;;;4.07;;
70850;SDS011;58475;49.662;9.636;2024-03-06T04:05:35;6.65;;;4.57;;
70850;SDS011;58475;49.662;9.636;2024-03-06T04:08:00;8.88;;;4.32;;
70850;SDS011;58475;49.662;9.636;2024-03-06T04:10:25;7.15;;;4.47;;
70850;SDS011;58475;49.662;9.636;2024-03-06T04:12:51;8.85;;;4.32;;
70850;SDS011;58475;49.662;9.636;2024-03-06T04:15:16;6.47;;;3.83;;
70850;SDS011;58475;49.662;9.636;2024-03-06T04:17:42;6.57;;;3.28;;
70850;SDS011;58475;49.662;9.636;2024-03-06T04:20:07;10.07;;;4.20;;
70850;SDS011;58475;49.662;9.636;2024-03-06T04:22:36;5.38;;;3.45;;
70850;SDS011;58475;49.662;9.636;2024-03-06T04:25:02;6.72;;;4.15;;
70850;SDS011;58475;49.662;9.636;2024-03-06T04:27:29;6.70;;;3.22;;
70850;SDS011;58475;49.662;9.636;2024-03-06T04:29:54;9.70;;;5.22;;
70850;SDS011;58475;49.662;9.636;2024-03-06T04:32:19;6.78;;;4.20;;
70850;SDS011;58475;49.662;9.636;2024-03-06T04:34:45;6.25;;;3.90;;
70850;SDS011;58475;49.662;9.636;2024-03-06T04:37:11;7.50;;;4.97;;
70850;SDS011;58475;49.662;9.636;2024-03-06T04:39:36;6.97;;;4.18;;
70850;SDS011;58475;49.662;9.636;2024-03-06T04:42:02;6.35;;;4.05;;
70850;SDS011;58475;49.662;9.636;2024-03-06T04:44:27;8.13;;;4.13;;
70850;SDS011;58475;49.662;9.636;2024-03-06T04:46:53;6.60;;;3.75;;
70850;SDS011;58475;49.662;9.636;2024-03-06T04:49:18;5.80;;;3.53;;
70850;SDS011;58475;49.662;9.636;2024-03-06T04:51:43;7.80;;;3.78;;
70850;SDS011;58475;49.662;9.636;2024-03-06T04:54:09;5.30;;;3.08;;
70850;SDS011;58475;49.662;9.636;2024-03-06T04:56:34;6.82;;;3.90;;
70850;SDS011;58475;49.662;9.636;2024-03-06T04:58:59;7.32;;;4.28;;
70850;SDS011;58475;49.662;9.636;2024-03-06T05:01:29;5.55;;;3.33;;
70850;SDS011;58475;49.662;9.636;2024-03-06T05:03:54;5.88;;;3.67;;
70850;SDS011;58475;49.662;9.636;2024-03-06T05:06:20;5.60;;;3.20;;
70850;SDS011;58475;49.662;9.636;2024-03-06T05:08:47;4.57;;;2.97;;
70850;SDS011;58475;49.662;9.636;2024-03-06T05:11:12;5.65;;;3.42;;
70850;SDS011;58475;49.662;9.636;2024-03-06T05:13:38;6.88;;;3.78;;
70850;SDS011;58475;49.662;9.636;2024-03-06T05:16:03;7.18;;;4.28;;
70850;SDS011;58475;49.662;9.636;2024-03-06T05:18:28;6.25;;;3.75;;
70850;SDS011;58475;49.662;9.636;2024-03-06T05:20:54;10.23;;;4.28;;
70850;SDS011;58475;49.662;9.636;2024-03-06T05:23:19;7.63;;;4.40;;
70850;SDS011;58475;49.662;9.636;2024-03-06T05:25:45;7.68;;;4.03;;
70850;SDS011;58475;49.662;9.636;2024-03-06T05:28:10;7.40;;;4.72;;
70850;SDS011;58475;49.662;9.636;2024-03-06T05:30:35;7.63;;;4.70;;
70850;SDS011;58475;49.662;9.636;2024-03-06T05:33:02;7.13;;;4.05;;
70850;SDS011;58475;49.662;9.636;2024-03-06T05:35:27;9.00;;;4.20;;
70850;SDS011;58475;49.662;9.636;2024-03-06T05:37:52;7.95;;;4.18;;
70850;SDS011;58475;49.662;9.636;2024-03-06T05:40:18;7.00;;;3.95;;
70850;SDS011;58475;49.662;9.636;2024-03-06T05:42:43;6.05;;;3.78;;
70850;SDS011;58475;49.662;9.636;2024-03-06T05:45:08;6.35;;;3.78;;
70850;SDS011;58475;49.662;9.636;2024-03-06T05:47:37;6.78;;;4.07;;
70850;SDS011;58475;49.662;9.636;2024-03-06T05:50:03;7.78;;;4.25;;
70850;SDS011;58475;49.662;9.636;2024-03-06T05:52:30;5.72;;;3.35;;
70850;SDS011;58475;49.662;9.636;2024-03-06T05:54:56;6.43;;;3.63;;
70850;SDS011;58475;49.662;9.636;2024-03-06T05:57:21;6.30;;;3.35;;
70850;SDS011;58475;49.662;9.636;2024-03-06T05:59:47;8.52;;;4.75;;
70850;SDS011;58475;49.662;9.636;2024-03-06T06:02:12;7.20;;;3.70;;
70850;SDS011;58475;49.662;9.636;2024-03-06T06:04:37;7.05;;;3.67;;
70850;SDS011;58475;49.662;9.636;2024-03-06T06:07:03;6.07;;;3.10;;
70850;SDS011;58475;49.662;9.636;2024-03-06T06:09:28;4.93;;;2.97;;
70850;SDS011;58475;49.662;9.636;2024-03-06T06:11:54;5.70;;;3.42;;
70850;SDS011;58475;49.662;9.636;2024-03-06T06:14:19;8.27;;;3.45;;
70850;SDS011;58475;49.662;9.636;2024-03-06T06:16:45;5.70;;;4.07;;
70850;SDS011;58475;49.662;9.636;2024-03-06T06:19:10;5.00;;;2.83;;
70850;SDS011;58475;49.662;9.636;2024-03-06T06:21:35;5.38;;;3.15;;
70850;SDS011;58475;49.662;9.636;2024-03-06T06:24:02;7.10;;;4.00;;
70850;SDS011;58475;49.662;9.636;2024-03-06T06:26:29;8.52;;;4.15;;
70850;SDS011;58475;49.662;9.636;2024-03-06T06:28:56;8.77;;;4.20;;
70850;SDS011;58475;49.662;9.636;2024-03-06T06:31:22;8.02;;;4.70;;
70850;SDS011;58475;49.662;9.636;2024-03-06T06:33:47;6.90;;;4.30;;
70850;SDS011;58475;49.662;9.636;2024-03-06T06:36:12;9.00;;;5.32;;
70850;SDS011;58475;49.662;9.636;2024-03-06T06:38:38;19.25;;;9.07;;
70850;SDS011;58475;49.662;9.636;2024-03-06T06:41:03;9.82;;;6.10;;
70850;SDS011;58475;49.662;9.636;2024-03-06T06:43:29;22.42;;;13.15;;
70850;SDS011;58475;49.662;9.636;2024-03-06T06:45:55;18.85;;;10.38;;
70850;SDS011;58475;49.662;9.636;2024-03-06T06:48:20;12.27;;;7.22;;
70850;SDS011;58475;49.662;9.636;2024-03-06T06:50:46;8.40;;;4.70;;
70850;SDS011;58475;49.662;9.636;2024-03-06T06:53:13;9.18;;;4.85;;
70850;SDS011;58475;49.662;9.636;2024-03-06T06:55:39;8.25;;;4.85;;
70850;SDS011;58475;49.662;9.636;2024-03-06T06:58:04;11.75;;;5.45;;
70850;SDS011;58475;49.662;9.636;2024-03-06T07:00:29;8.60;;;4.88;;
70850;SDS011;58475;49.662;9.636;2024-03-06T07:02:56;9.18;;;4.53;;
70850;SDS011;58475;49.662;9.636;2024-03-06T07:05:23;8.35;;;4.50;;
70850;SDS011;58475;49.662;9.636;2024-03-06T07:07:49;7.80;;;5.38;;
70850;SDS011;58475;49.662;9.636;2024-03-06T07:10:14;10.50;;;5.75;;
70850;SDS011;58475;49.662;9.636;2024-03-06T07:12:39;11.00;;;5.85;;
70850;SDS011;58475;49.662;9.636;2024-03-06T07:15:05;8.52;;;4.78;;
70850;SDS011;58475;49.662;9.636;2024-03-06T07:17:31;10.13;;;5.70;;
70850;SDS011;58475;49.662;9.636;2024-03-06T07:19:57;15.02;;;8.90;;
70850;SDS011;58475;49.662;9.636;2024-03-06T07:22:22;11.95;;;6.03;;
70850;SDS011;58475;49.662;9.636;2024-03-06T07:24:48;9.38;;;5.30;;
70850;SDS011;58475;49.662;9.636;2024-03-06T07:27:13;12.95;;;7.00;;
70850;SDS011;58475;49.662;9.636;2024-03-06T07:29:38;8.73;;;5.45;;
70850;SDS011;58475;49.662;9.636;2024-03-06T07:32:04;9.65;;;5.57;;
70850;SDS011;58475;49.662;9.636;2024-03-06T07:34:32;11.35;;;6.45;;
70850;SDS011;58475;49.662;9.636;2024-03-06T07:36:58;9.07;;;5.25;;
70850;SDS011;58475;49.662;9.636;2024-03-06T07:39:24;10.35;;;5.75;;
70850;SDS011;58475;49.662;9.636;2024-03-06T07:41:50;12.10;;;5.35;;
70850;SDS011;58475;49.662;9.636;2024-03-06T07:44:15;10.10;;;5.15;;
70850;SDS011;58475;49.662;9.636;2024-03-06T07:46:41;8.57;;;4.55;;
70850;SDS011;58475;49.662;9.636;2024-03-06T07:49:06;11.05;;;6.07;;
70850;SDS011;58475;49.662;9.636;2024-03-06T07:51:32;10.63;;;6.03;;
70850;SDS011;58475;49.662;9.636;2024-03-06T07:53:58;16.60;;;10.52;;
70850;SDS011;58475;49.662;9.636;2024-03-06T07:56:24;9.75;;;5.63;;
70850;SDS011;58475;49.662;9.636;2024-03-06T07:58:50;9.25;;;5.88;;
70850;SDS011;58475;49.662;9.636;2024-03-06T08:01:15;16.05;;;9.30;;
70850;SDS011;58475;49.662;9.636;2024-03-06T08:03:41;12.68;;;7.47;;
70850;SDS011;58475;49.662;9.636;2024-03-06T08:06:08;10.55;;;5.97;;
70850;SDS011;58475;49.662;9.636;2024-03-06T08:08:34;11.32;;;6.07;;
70850;SDS011;58475;49.662;9.636;2024-03-06T08:11:00;13.10;;;7.18;;
70850;SDS011;58475;49.662;9.636;2024-03-06T08:13:25;10.82;;;5.85;;
70850;SDS011;58475;49.662;9.636;2024-03-06T08:15:50;8.75;;;5.35;;
70850;SDS011;58475;49.662;9.636;2024-03-06T08:18:16;10.75;;;5.95;;
70850;SDS011;58475;49.662;9.636;2024-03-06T08:20:41;10.80;;;5.60;;
70850;SDS011;58475;49.662;9.636;2024-03-06T08:23:07;10.20;;;5.70;;
70850;SDS011;58475;49.662;9.636;2024-03-06T08:25:35;9.02;;;5.55;;
70850;SDS011;58475;49.662;9.636;2024-03-06T08:28:00;11.02;;;5.57;;
70850;SDS011;58475;49.662;9.636;2024-03-06T08:30:26;11.38;;;5.95;;
70850;SDS011;58475;49.662;9.636;2024-03-06T08:32:51;12.05;;;5.45;;
70850;SDS011;58475;49.662;9.636;2024-03-06T08:35:17;8.95;;;5.22;;
70850;SDS011;58475;49.662;9.636;2024-03-06T08:37:45;10.38;;;6.32;;
70850;SDS011;58475;49.662;9.636;2024-03-06T08:40:10;12.30;;;6.53;;
70850;SDS011;58475;49.662;9.636;2024-03-06T08:42:40;15.20;;;8.48;;
70850;SDS011;58475;49.662;9.636;2024-03-06T08:45:08;13.38;;;6.68;;
70850;SDS011;58475;49.662;9.636;2024-03-06T08:47:34;10.40;;;6.07;;
70850;SDS011;58475;49.662;9.636;2024-03-06T08:50:00;12.57;;;6.03;;
70850;SDS011;58475;49.662;9.636;2024-03-06T08:52:27;11.75;;;6.10;;
70850;SDS011;58475;49.662;9.636;2024-03-06T08:54:53;12.23;;;5.88;;
70850;SDS011;58475;49.662;9.636;2024-03-06T08:57:18;10.13;;;5.57;;
70850;SDS011;58475;49.662;9.636;2024-03-06T08:59:46;9.90;;;5.97;;
70850;SDS011;58475;49.662;9.636;2024-03-06T09:02:12;13.13;;;6.10;;
70850;SDS011;58475;49.662;9.636;2024-03-06T09:04:39;10.05;;;5.65;;
70850;SDS011;58475;49.662;9.636;2024-03-06T09:07:06;10.43;;;5.60;;
70850;SDS011;58475;49.662;9.636;2024-03-06T09:09:31;10.02;;;5.65;;
70850;SDS011;58475;49.662;9.636;2024-03-06T09:11:59;9.88;;;5.40;;
70850;SDS011;58475;49.662;9.636;2024-03-06T09:14:25;10.73;;;5.65;;
70850;SDS011;58475;49.662;9.636;2024-03-06T09:16:50;11.05;;;6.28;;
70850;SDS011;58475;49.662;9.636;2024-03-06T09:19:16;13.00;;;5.95;;
70850;SDS011;58475;49.662;9.636;2024-03-06T09:21:41;10.77;;;5.90;;
70850;SDS011;58475;49.662;9.636;2024-03-06T09:24:07;14.02;;;6.70;;
70850;SDS011;58475;49.662;9.636;2024-03-06T09:26:32;11.77;;;6.47;;
70850;SDS011;58475;49.662;9.636;2024-03-06T09:28:57;20.25;;;10.93;;
70850;SDS011;58475;49.662;9.636;2024-03-06T09:31:23;13.00;;;7.03;;
70850;SDS011;58475;49.662;9.636;2024-03-06T09:33:48;11.75;;;7.25;;
70850;SDS011;58475;49.662;9.636;2024-03-06T09:36:13;12.25;;;6.63;;
70850;SDS011;58475;49.662;9.636;2024-03-06T09:38:39;12.57;;;7.07;;
70850;SDS011;58475;49.662;9.636;2024-03-06T09:41:05;13.38;;;6.18;;
70850;SDS011;58475;49.662;9.636;2024-03-06T09:43:32;11.23;;;6.45;;
70850;SDS011;58475;49.662;9.636;2024-03-06T09:45:58;11.25;;;6.70;;
70850;SDS011;58475;49.662;9.636;2024-03-06T09:48:23;11.32;;;6.15;;
70850;SDS011;58475;49.662;9.636;2024-03-06T09:50:49;11.57;;;6.30;;
70850;SDS011;58475;49.662;9.636;2024-03-06T09:53:16;8.73;;;5.43;;
70850;SDS011;58475;49.662;9.636;2024-03-06T09:55:43;13.80;;;7.82;;
70850;SDS011;58475;49.662;9.636;2024-03-06T09:58:11;11.43;;;6.03;;
70850;SDS011;58475;49.662;9.636;2024-03-06T10:00:37;9.73;;;5.72;;
70850;SDS011;58475;49.662;9.636;2024-03-06T10:03:03;17.65;;;9.20;;
70850;SDS011;58475;49.662;9.636;2024-03-06T10:05:34;11.25;;;5.18;;
70850;SDS011;58475;49.662;9.636;2024-03-06T10:08:03;10.18;;;5.53;;
70850;SDS011;58475;49.662;9.636;2024-03-06T10:10:32;9.43;;;5.38;;
70850;SDS011;58475;49.662;9.636;2024-03-06T10:12:57;10.18;;;5.22;;
70850;SDS011;58475;49.662;9.636;2024-03-06T10:15:24;8.82;;;5.55;;
70850;SDS011;58475;49.662;9.636;2024-03-06T10:17:51;10.65;;;5.40;;
70850;SDS011;58475;49.662;9.636;2024-03-06T10:20:21;10.98;;;5.88;;
70850;SDS011;58475;49.662;9.636;2024-03-06T10:22:51;10.23;;;5.60;;
70850;SDS011;58475;49.662;9.636;2024-03-06T10:25:18;11.13;;;5.55;;
70850;SDS011;58475;49.662;9.636;2024-03-06T10:27:44;13.48;;;6.78;;
70850;SDS011;58475;49.662;9.636;2024-03-06T10:30:10;9.52;;;5.07;;
70850;SDS011;58475;49.662;9.636;2024-03-06T10:32:39;10.23;;;5.60;;
70850;SDS011;58475;49.662;9.636;2024-03-06T10:35:05;10.07;;;5.20;;
70850;SDS011;58475;49.662;9.636;2024-03-06T10:37:34;9.48;;;5.53;;
70850;SDS011;58475;49.662;9.636;2024-03-06T10:40:01;9.52;;;4.72;;
70850;SDS011;58475;49.662;9.636;2024-03-06T10:44:58;9.70;;;4.47;;
70850;SDS011;58475;49.662;9.636;2024-03-06T10:47:25;10.93;;;5.63;;
70850;SDS011;58475;49.662;9.636;2024-03-06T10:49:52;8.32;;;5.05;;
70850;SDS011;58475;49.662;9.636;2024-03-06T10:52:19;11.13;;;5.78;;
70850;SDS011;58475;49.662;9.636;2024-03-06T10:54:44;10.48;;;5.72;;
70850;SDS011;58475;49.662;9.636;2024-03-06T10:57:12;10.75;;;5.72;;
70850;SDS011;58475;49.662;9.636;2024-03-06T10:59:39;11.75;;;6.18;;
70850;SDS011;58475;49.662;9.636;2024-03-06T11:02:07;11.45;;;6.70;;
70850;SDS011;58475;49.662;9.636;2024-03-06T11:04:34;12.55;;;6.43;;
70850;SDS011;58475;49.662;9.636;2024-03-06T11:07:00;8.65;;;5.32;;
70850;SDS011;58475;49.662;9.636;2024-03-06T11:09:27;10.85;;;5.00;;
70850;SDS011;58475;49.662;9.636;2024-03-06T11:11:54;8.30;;;5.22;;
70850;SDS011;58475;49.662;9.636;2024-03-06T11:14:21;9.77;;;5.28;;
70850;SDS011;58475;49.662;9.636;2024-03-06T11:17:03;10.05;;;5.30;;
70850;SDS011;58475;49.662;9.636;2024-03-06T11:19:30;11.38;;;6.28;;
70850;SDS011;58475;49.662;9.636;2024-03-06T11:21:57;14.35;;;5.68;;
70850;SDS011;58475;49.662;9.636;2024-03-06T11:24:23;11.02;;;5.43;;
70850;SDS011;58475;49.662;9.636;2024-03-06T11:26:57;11.02;;;5.68;;
70850;SDS011;58475;49.662;9.636;2024-03-06T11:29:23;11.43;;;5.38;;
70850;SDS011;58475;49.662;9.636;2024-03-06T11:32:00;10.75;;;6.22;;
70850;SDS011;58475;49.662;9.636;2024-03-06T11:34:28;15.30;;;5.75;;
70850;SDS011;58475;49.662;9.636;2024-03-06T11:36:58;15.35;;;8.60;;
70850;SDS011;58475;49.662;9.636;2024-03-06T11:39:24;14.18;;;6.05;;
70850;SDS011;58475;49.662;9.636;2024-03-06T11:41:52;11.75;;;6.03;;
70850;SDS011;58475;49.662;9.636;2024-03-06T11:44:18;10.95;;;5.15;;
70850;SDS011;58475;49.662;9.636;2024-03-06T11:49:18;11.60;;;6.15;;
70850;SDS011;58475;49.662;9.636;2024-03-06T11:51:45;14.27;;;7.18;;
70850;SDS011;58475;49.662;9.636;2024-03-06T11:54:11;12.35;;;5.88;;
70850;SDS011;58475;49.662;9.636;2024-03-06T11:56:40;8.48;;;5.45;;
70850;SDS011;58475;49.662;9.636;2024-03-06T11:59:09;12.00;;;6.20;;
70850;SDS011;58475;49.662;9.636;2024-03-06T12:01:35;10.00;;;5.10;;
70850;SDS011;58475;49.662;9.636;2024-03-06T12:04:01;9.60;;;5.13;;
70850;SDS011;58475;49.662;9.636;2024-03-06T12:06:27;10.65;;;6.25;;
70850;SDS011;58475;49.662;9.636;2024-03-06T12:08:53;11.35;;;6.38;;
70850;SDS011;58475;49.662;9.636;2024-03-06T12:11:19;11.95;;;6.50;;
70850;SDS011;58475;49.662;9.636;2024-03-06T12:13:45;10.93;;;5.78;;
70850;SDS011;58475;49.662;9.636;2024-03-06T12:16:13;11.13;;;6.10;;
70850;SDS011;58475;49.662;9.636;2024-03-06T12:18:39;9.48;;;5.25;;
70850;SDS011;58475;49.662;9.636;2024-03-06T12:21:04;12.43;;;6.82;;
70850;SDS011;58475;49.662;9.636;2024-03-06T12:23:29;14.35;;;7.00;;
70850;SDS011;58475;49.662;9.636;2024-03-06T12:26:07;11.02;;;5.03;;
70850;SDS011;58475;49.662;9.636;2024-03-06T12:28:35;11.02;;;5.80;;
70850;SDS011;58475;49.662;9.636;2024-03-06T12:31:04;11.35;;;4.88;;
70850;SDS011;58475;49.662;9.636;2024-03-06T12:33:30;10.60;;;5.50;;
70850;SDS011;58475;49.662;9.636;2024-03-06T12:36:14;9.35;;;5.18;;
70850;SDS011;58475;49.662;9.636;2024-03-06T12:38:39;8.95;;;4.78;;
70850;SDS011;58475;49.662;9.636;2024-03-06T12:41:05;10.82;;;5.55;;
70850;SDS011;58475;49.662;9.636;2024-03-06T12:43:31;9.65;;;5.20;;
70850;SDS011;58475;49.662;9.636;2024-03-06T12:45:56;10.93;;;5.82;;
70850;SDS011;58475;49.662;9.636;2024-03-06T12:48:22;11.23;;;5.63;;
70850;SDS011;58475;49.662;9.636;2024-03-06T12:50:48;10.82;;;6.18;;
70850;SDS011;58475;49.662;9.636;2024-03-06T12:53:20;10.30;;;4.72;;
70850;SDS011;58475;49.662;9.636;2024-03-06T12:55:46;10.27;;;4.93;;
70850;SDS011;58475;49.662;9.636;2024-03-06T12:58:14;11.20;;;5.57;;
70850;SDS011;58475;49.662;9.636;2024-03-06T13:00:40;10.43;;;5.35;;
70850;SDS011;58475;49.662;9.636;2024-03-06T13:03:06;9.77;;;5.65;;
70850;SDS011;58475;49.662;9.636;2024-03-06T13:05:32;11.15;;;5.85;;
70850;SDS011;58475;49.662;9.636;2024-03-06T13:07:58;11.80;;;5.18;;
70850;SDS011;58475;49.662;9.636;2024-03-06T13:10:26;11.20;;;5.93;;
70850;SDS011;58475;49.662;9.636;2024-03-06T13:12:52;10.48;;;5.43;;
70850;SDS011;58475;49.662;9.636;2024-03-06T13:15:17;11.45;;;5.63;;
70850;SDS011;58475;49.662;9.636;2024-03-06T13:17:43;11.20;;;5.82;;
70850;SDS011;58475;49.662;9.636;2024-03-06T13:20:08;11.68;;;5.85;;
70850;SDS011;58475;49.662;9.636;2024-03-06T13:22:34;10.55;;;5.65;;
70850;SDS011;58475;49.662;9.636;2024-03-06T13:25:00;10.18;;;5.05;;
70850;SDS011;58475;49.662;9.636;2024-03-06T13:27:26;10.88;;;5.65;;
70850;SDS011;58475;49.662;9.636;2024-03-06T13:29:51;12.90;;;6.22;;
70850;SDS011;58475;49.662;9.636;2024-03-06T13:32:18;11.60;;;5.80;;
70850;SDS011;58475;49.662;9.636;2024-03-06T13:34:43;11.23;;;5.15;;
70850;SDS011;58475;49.662;9.636;2024-03-06T13:37:09;10.25;;;5.20;;
70850;SDS011;58475;49.662;9.636;2024-03-06T13:39:35;10.43;;;5.40;;
70850;SDS011;58475;49.662;9.636;2024-03-06T13:42:01;11.52;;;6.07;;
70850;SDS011;58475;49.662;9.636;2024-03-06T13:44:26;10.40;;;5.45;;
70850;SDS011;58475;49.662;9.636;2024-03-06T13:46:51;11.77;;;5.63;;
70850;SDS011;58475;49.662;9.636;2024-03-06T13:49:36;8.88;;;4.47;;
70850;SDS011;58475;49.662;9.636;2024-03-06T13:52:04;8.68;;;4.53;;
70850;SDS011;58475;49.662;9.636;2024-03-06T13:54:30;10.48;;;5.55;;
70850;SDS011;58475;49.662;9.636;2024-03-06T13:56:56;9.80;;;4.97;;
70850;SDS011;58475;49.662;9.636;2024-03-06T13:59:27;11.45;;;5.68;;
70850;SDS011;58475;49.662;9.636;2024-03-06T14:01:56;9.50;;;5.43;;
70850;SDS011;58475;49.662;9.636;2024-03-06T14:04:22;8.88;;;4.95;;
70850;SDS011;58475;49.662;9.636;2024-03-06T14:06:49;8.73;;;5.00;;
70850;SDS011;58475;49.662;9.636;2024-03-06T14:09:14;10.30;;;5.25;;
70850;SDS011;58475;49.662;9.636;2024-03-06T14:11:40;9.73;;;5.22;;
70850;SDS011;58475;49.662;9.636;2024-03-06T14:14:05;10.55;;;4.97;;
70850;SDS011;58475;49.662;9.636;2024-03-06T14:16:31;10.77;;;5.15;;
70850;SDS011;58475;49.662;9.636;2024-03-06T14:18:56;11.85;;;5.50;;
70850;SDS011;58475;49.662;9.636;2024-03-06T14:21:22;10.77;;;5.45;;
70850;SDS011;58475;49.662;9.636;2024-03-06T14:23:47;10.90;;;5.40;;
70850;SDS011;58475;49.662;9.636;2024-03-06T14:26:12;10.63;;;5.35;;
70850;SDS011;58475;49.662;9.636;2024-03-06T14:28:38;9.73;;;4.70;;
70850;SDS011;58475;49.662;9.636;2024-03-06T14:31:03;10.88;;;5.10;;
70850;SDS011;58475;49.662;9.636;2024-03-06T14:33:29;11.88;;;5.28;;
70850;SDS011;58475;49.662;9.636;2024-03-06T14:35:54;8.93;;;4.97;;
70850;SDS011;58475;49.662;9.636;2024-03-06T14:38:20;10.73;;;5.65;;
70850;SDS011;58475;49.662;9.636;2024-03-06T14:40:45;8.63;;;4.72;;
70850;SDS011;58475;49.662;9.636;2024-03-06T14:43:10;8.15;;;4.72;;